Time;durP1;ratioP1;P1;durP2;ratioP2;P2;SDS_P1;SDS_P2;PMS_P1;PMS_P2;Temp;Humidity;BMP_temperature;BMP_pressure;BME280_temperature;BME280_humidity;BME280_pressure;Samples;Min_cycle;Max_cycle;Signal;HPM_P1;HPM_P2
2023/10/20 00:01:15;;;;;;;19.10;14.13;;;;;;;15.58;100.00;98297.81;3615769;39;20066;-67
2023/10/20 00:03:41;;;;;;;14.35;12.80;;;;;;;15.61;100.00;98299.31;3613289;39;20057;-67
2023/10/20 00:06:08;;;;;;;16.40;13.10;;;;;;;15.61;100.00;98299.31;3621828;39;20065;-67
2023/10/20 00:08:34;;;;;;;16.88;14.25;;;;;;;15.59;100.00;98301.34;3621736;39;20055;-68
2023/10/20 00:11:04;;;;;;;16.10;14.50;;;;;;;15.59;100.00;98296.78;3615005;39;20057;-67
2023/10/20 00:13:30;;;;;;;17.63;14.02;;;;;;;15.60;100.00;98289.47;3619702;39;20090;-68
2023/10/20 00:15:56;;;;;;;15.77;14.07;;;;;;;15.59;100.00;98285.09;3616892;39;20135;-67
2023/10/20 00:18:23;;;;;;;17.05;13.95;;;;;;;15.58;100.00;98267.19;3617082;39;20478;-68
2023/10/20 00:20:49;;;;;;;15.30;13.70;;;;;;;15.58;100.00;98278.84;3618152;39;20127;-68
2023/10/20 00:23:14;;;;;;;15.85;14.15;;;;;;;15.54;100.00;98269.44;3617626;39;20138;-69
2023/10/20 00:25:42;;;;;;;15.88;14.07;;;;;;;15.57;100.00;98266.31;3605609;39;20320;-68
2023/10/20 00:28:11;;;;;;;14.93;13.43;;;;;;;15.40;100.00;98233.22;3615374;39;20054;-68
2023/10/20 00:30:41;;;;;;;16.58;14.80;;;;;;;15.53;100.00;98260.44;3615732;39;20400;-68
2023/10/20 00:33:07;;;;;;;17.08;13.70;;;;;;;15.52;100.00;98247.94;3615479;39;20051;-67
2023/10/20 00:35:33;;;;;;;15.57;13.98;;;;;;;15.52;100.00;98239.84;3614102;39;20047;-68
2023/10/20 00:38:02;;;;;;;16.67;14.13;;;;;;;15.52;100.00;98223.59;3615711;39;20321;-67
2023/10/20 00:40:28;;;;;;;14.70;13.13;;;;;;;15.52;100.00;98211.91;3617470;39;20051;-67
2023/10/20 00:42:54;;;;;;;15.55;13.70;;;;;;;15.51;100.00;98205.66;3615982;39;20055;-66
2023/10/20 00:45:20;;;;;;;15.50;13.48;;;;;;;15.51;100.00;98202.97;3616741;39;20047;-67
2023/10/20 00:47:46;;;;;;;14.50;13.00;;;;;;;15.45;100.00;98192.91;3615862;39;20128;-67
2023/10/20 00:50:15;;;;;;;14.82;13.43;;;;;;;15.50;100.00;98193.16;3618879;39;20042;-67
2023/10/20 00:52:50;;;;;;;16.40;13.38;;;;;;;15.43;100.00;98184.13;3615177;39;20065;-68
2023/10/20 00:55:20;;;;;;;16.17;13.50;;;;;;;15.34;100.00;98158.19;3618673;39;20054;-68
2023/10/20 00:57:46;;;;;;;16.08;13.57;;;;;;;15.46;100.00;98183.72;3617251;39;20386;-68
2023/10/20 01:00:13;;;;;;;16.83;14.20;;;;;;;15.47;100.00;98188.09;3605790;39;20050;-68
2023/10/20 01:02:40;;;;;;;14.93;13.27;;;;;;;15.34;100.00;98152.78;3614757;39;20046;-68
2023/10/20 01:05:06;;;;;;;17.08;14.85;;;;;;;15.34;100.00;98147.38;3615021;39;20042;-67
2023/10/20 01:07:33;;;;;;;17.20;13.98;;;;;;;15.48;100.00;98170.03;3614391;39;20158;-67
2023/10/20 01:10:06;;;;;;;15.65;13.73;;;;;;;15.47;100.00;98168.31;3616982;39;20045;-68
2023/10/20 01:12:35;;;;;;;15.95;14.25;;;;;;;15.46;100.00;98161.25;3615809;39;20075;-67
2023/10/20 01:15:05;;;;;;;16.65;14.27;;;;;;;15.45;100.00;98154.16;3616360;39;20058;-67
2023/10/20 01:17:30;;;;;;;16.33;14.60;;;;;;;15.27;100.00;98113.97;3614760;39;20055;-67
2023/10/20 01:20:01;;;;;;;16.23;14.25;;;;;;;15.44;100.00;98138.94;3614623;39;20057;-67
2023/10/20 01:22:27;;;;;;;16.75;14.95;;;;;;;15.43;100.00;98129.97;3614369;39;20098;-67
2023/10/20 01:24:52;;;;;;;16.70;14.68;;;;;;;15.44;100.00;98128.94;3618472;39;20100;-67
2023/10/20 01:27:18;;;;;;;17.27;15.05;;;;;;;15.44;100.00;98125.38;3605794;39;20054;-67
2023/10/20 01:29:43;;;;;;;15.93;14.18;;;;;;;15.34;100.00;98109.47;3614538;39;20067;-67
2023/10/20 01:32:10;;;;;;;16.30;14.60;;;;;;;15.42;100.00;98117.47;3616360;39;20050;-67
2023/10/20 01:34:36;;;;;;;20.70;15.82;;;;;;;15.43;100.00;98115.59;3611598;39;20039;-67
2023/10/20 01:37:02;;;;;;;17.77;15.02;;;;;;;15.38;100.00;98116.19;3614605;39;20058;-67
2023/10/20 01:39:29;;;;;;;17.10;15.40;;;;;;;15.23;100.00;98085.63;3619374;39;20126;-67
2023/10/20 01:41:55;;;;;;;18.23;15.60;;;;;;;15.42;100.00;98125.59;3614372;39;20350;-67
2023/10/20 01:44:21;;;;;;;16.40;14.63;;;;;;;15.42;100.00;98125.59;3605516;39;20054;-67
2023/10/20 01:46:50;;;;;;;17.15;15.35;;;;;;;15.42;100.00;98112.06;3618226;39;20074;-67
2023/10/20 01:49:17;;;;;;;17.02;15.20;;;;;;;15.17;100.00;98065.59;3616457;39;20039;-67
2023/10/20 01:51:43;;;;;;;17.45;15.57;;;;;;;15.35;100.00;98094.91;3614698;39;20136;-67
2023/10/20 01:54:09;;;;;;;17.67;15.73;;;;;;;15.37;100.00;98097.41;3617153;39;20377;-67
2023/10/20 01:56:34;;;;;;;20.20;15.50;;;;;;;15.39;100.00;98107.03;3616269;39;20086;-67
2023/10/20 01:59:00;;;;;;;18.33;15.25;;;;;;;15.40;100.00;98100.56;3613895;39;20370;-67
2023/10/20 02:01:26;;;;;;;18.83;15.63;;;;;;;15.39;100.00;98081.84;3614617;39;20051;-67
2023/10/20 02:03:53;;;;;;;17.95;16.05;;;;;;;15.42;100.00;98073.34;3618496;39;20047;-67
2023/10/20 02:06:18;;;;;;;19.38;16.17;;;;;;;15.39;100.00;98066.44;3618253;39;20050;-67
2023/10/20 02:08:44;;;;;;;18.08;16.10;;;;;;;15.41;100.00;98067.06;3614104;39;20070;-67
2023/10/20 02:11:09;;;;;;;19.83;16.42;;;;;;;15.42;100.00;98062.50;3614354;39;20138;-67
2023/10/20 02:13:38;;;;;;;17.83;15.93;;;;;;;15.19;100.00;98019.38;3613850;39;20086;-67
2023/10/20 02:16:07;;;;;;;18.60;16.55;;;;;;;15.41;100.00;98061.63;3614251;39;20051;-67
2023/10/20 02:18:33;;;;;;;19.58;16.48;;;;;;;15.23;100.00;98031.50;3614762;39;20047;-67
2023/10/20 02:21:03;;;;;;;19.08;16.95;;;;;;;15.41;100.00;98058.94;3618032;39;20060;-67
2023/10/20 02:23:34;;;;;;;19.58;17.48;;;;;;;15.42;100.00;98052.50;3617153;39;20116;-67
2023/10/20 02:26:03;;;;;;;18.23;16.33;;;;;;;15.26;100.00;98023.00;3617545;39;20405;-67
2023/10/20 02:28:28;;;;;;;18.77;16.75;;;;;;;15.43;100.00;98037.94;3613779;39;20054;-67
2023/10/20 02:30:56;;;;;;;18.13;16.23;;;;;;;15.42;100.00;98028.16;3619574;39;20297;-67
2023/10/20 02:33:23;;;;;;;19.15;17.02;;;;;;;15.44;100.00;98028.78;3617704;39;20053;-67
2023/10/20 02:35:48;;;;;;;19.38;17.23;;;;;;;15.44;100.00;98017.94;3616664;39;20272;-67
2023/10/20 02:38:14;;;;;;;19.40;17.30;;;;;;;15.43;100.00;97999.19;3613825;39;20057;-67
2023/10/20 02:40:48;;;;;;;19.20;17.25;;;;;;;15.43;100.00;98004.63;3614013;39;20046;-66
2023/10/20 02:43:14;;;;;;;19.42;16.77;;;;;;;15.08;100.00;97948.50;3617770;39;20054;-67
2023/10/20 02:45:47;;;;;;;18.83;16.67;;;;;;;15.45;100.00;98007.97;3614247;39;20321;-67
2023/10/20 02:48:13;;;;;;;22.10;17.65;;;;;;;15.47;100.00;98001.31;3615762;39;20104;-67
2023/10/20 02:50:39;;;;;;;18.15;16.30;;;;;;;15.48;100.00;97989.47;3614181;39;20050;-67
2023/10/20 02:53:05;;;;;;;18.75;16.75;;;;;;;15.48;100.00;97981.34;3616828;39;20058;-67
2023/10/20 02:55:31;;;;;;;19.65;17.67;;;;;;;15.47;100.00;97976.09;3618369;39;20047;-67
2023/10/20 02:57:57;;;;;;;19.55;16.95;;;;;;;15.48;100.00;97975.94;3614820;39;20045;-66
2023/10/20 03:00:22;;;;;;;18.88;16.98;;;;;;;15.48;100.00;97973.22;3613529;39;20050;-66
2023/10/20 03:02:48;;;;;;;19.08;17.02;;;;;;;15.04;100.00;97889.59;3616970;39;20062;-66
2023/10/20 03:05:15;;;;;;;19.10;17.10;;;;;;;15.46;100.00;97944.66;3616155;39;20077;-66
2023/10/20 03:07:41;;;;;;;20.15;17.55;;;;;;;15.50;100.00;97941.34;3614745;39;20069;-67
2023/10/20 03:10:08;;;;;;;18.95;17.05;;;;;;;15.44;100.00;97919.66;3616650;39;20381;-66
2023/10/20 03:12:34;;;;;;;18.77;16.58;;;;;;;15.50;100.00;97935.94;3617780;39;20045;-67
2023/10/20 03:14:59;;;;;;;20.13;17.08;;;;;;;15.51;100.00;97934.09;3616909;39;20050;-66
2023/10/20 03:17:26;;;;;;;18.70;16.85;;;;;;;15.51;100.00;97943.03;3614930;39;20059;-66
2023/10/20 03:19:52;;;;;;;18.35;16.40;;;;;;;15.52;100.00;97944.72;3614283;39;20688;-67
2023/10/20 03:22:17;;;;;;;18.02;16.13;;;;;;;15.54;100.00;97953.47;3620559;39;20078;-66
2023/10/20 03:24:43;;;;;;;18.00;16.20;;;;;;;15.53;100.00;97940.97;3614206;39;20097;-66
2023/10/20 03:27:08;;;;;;;20.00;16.98;;;;;;;15.40;100.00;97915.69;3616021;39;20397;-66
2023/10/20 03:29:34;;;;;;;17.63;15.80;;;;;;;15.54;100.00;97921.00;3616162;39;20039;-66
2023/10/20 03:32:00;;;;;;;17.35;15.32;;;;;;;15.55;100.00;97919.94;3615000;39;20047;-67
2023/10/20 03:34:25;;;;;;;17.83;16.13;;;;;;;15.54;100.00;97904.75;3613440;39;20051;-66
2023/10/20 03:36:52;;;;;;;18.92;16.75;;;;;;;15.58;100.00;97904.34;3617374;39;20093;-66
2023/10/20 03:39:20;;;;;;;19.13;17.13;;;;;;;15.36;100.00;97869.22;3613694;39;20150;-66
2023/10/20 03:41:49;;;;;;;18.45;16.55;;;;;;;15.55;100.00;97895.59;3613623;39;20094;-66
2023/10/20 03:44:14;;;;;;;18.17;16.27;;;;;;;15.56;100.00;97904.53;3604511;39;20047;-66
2023/10/20 03:46:48;;;;;;;19.10;17.10;;;;;;;15.54;100.00;97912.88;3613738;39;20066;-66
2023/10/20 03:49:15;;;;;;;;;;;;;;;15.52;100.00;97906.81;3619951;39;20295;-67
2023/10/20 03:51:49;;;;;;;18.63;16.35;;;;;;;15.53;100.00;97900.34;3613266;39;20297;-66
2023/10/20 03:54:15;;;;;;;17.83;16.02;;;;;;;15.52;100.00;97879.72;3613856;39;20043;-66
2023/10/20 03:56:42;;;;;;;18.35;15.73;;;;;;;15.52;100.00;97873.50;3605846;39;20134;-66
2023/10/20 03:59:09;;;;;;;19.15;17.15;;;;;;;15.52;100.00;97878.91;3618441;39;20057;-67
2023/10/20 04:01:35;;;;;;;19.65;17.65;;;;;;;15.48;100.00;97867.63;3614132;39;20046;-66
2023/10/20 04:04:01;;;;;;;19.45;17.45;;;;;;;15.52;100.00;97879.72;3613969;39;20123;-66
2023/10/20 04:06:27;;;;;;;19.05;17.10;;;;;;;15.44;100.00;97866.34;3614260;39;20134;-66
2023/10/20 04:08:53;;;;;;;19.77;16.83;;;;;;;15.49;100.00;97874.72;3618977;39;20351;-66
2023/10/20 04:11:18;;;;;;;19.02;16.95;;;;;;;15.44;100.00;97852.81;3617268;39;20278;-66
2023/10/20 04:13:44;;;;;;;19.00;16.63;;;;;;;15.46;100.00;97842.63;3618585;39;20075;-66
2023/10/20 04:16:14;;;;;;;20.92;17.42;;;;;;;15.28;100.00;97820.66;3614906;39;20085;-66
2023/10/20 04:18:43;;;;;;;18.90;16.95;;;;;;;15.45;100.00;97848.25;3620919;39;20102;-66
2023/10/20 04:21:11;;;;;;;18.90;16.88;;;;;;;15.43;100.00;97842.19;3616114;39;20067;-67
2023/10/20 04:23:38;;;;;;;18.58;15.93;;;;;;;15.42;100.00;97829.69;3615204;39;20047;-67
2023/10/20 04:26:16;;;;;;;20.05;17.08;;;;;;;15.32;100.00;97806.53;3605597;39;20035;-67
2023/10/20 04:28:46;;;;;;;21.38;17.45;;;;;;;15.30;100.00;97805.06;3605141;39;20081;-67
2023/10/20 04:53:31;;;;;;;19.23;17.00;;;;;;;15.37;100.00;97759.91;3615539;39;20416;-67
2023/10/20 05:03:53;;;;;;;20.90;18.77;;;;;;;15.34;100.00;97738.66;3618740;39;20062;-67
2023/10/20 05:06:40;;;;;;;19.58;17.58;;;;;;;15.33;100.00;97724.28;3616718;39;20049;-67
2023/10/20 05:09:09;;;;;;;21.33;19.13;;;;;;;15.06;100.00;97674.66;3620241;39;20047;-67
2023/10/20 05:11:34;;;;;;;20.92;18.73;;;;;;;15.29;100.00;97709.50;3615381;39;20049;-67
2023/10/20 05:14:00;;;;;;;20.50;18.40;;;;;;;15.33;100.00;97716.19;3616864;39;20051;-67
2023/10/20 05:16:28;;;;;;;21.15;18.88;;;;;;;15.28;100.00;97707.81;3614341;39;20396;-67
2023/10/20 05:18:55;;;;;;;19.30;17.25;;;;;;;15.36;100.00;97714.13;3618365;39;20103;-68
2023/10/20 05:21:21;;;;;;;22.40;19.85;;;;;;;15.23;100.00;97685.97;3609485;39;20046;-67
2023/10/20 05:23:49;;;;;;;22.58;20.20;;;;;;;15.32;100.00;97700.16;3619051;39;20075;-65
2023/10/20 05:26:15;;;;;;;22.65;20.23;;;;;;;15.30;100.00;97692.22;3614935;39;20158;-67
2023/10/20 05:28:41;;;;;;;22.73;20.27;;;;;;;15.34;100.00;97687.25;3617785;39;20803;-67
2023/10/20 05:31:07;;;;;;;22.80;20.45;;;;;;;15.34;100.00;97692.66;3620891;39;20055;-67
2023/10/20 05:33:33;;;;;;;24.02;20.52;;;;;;;15.34;100.00;97703.47;3614244;39;20050;-67
2023/10/20 05:36:05;;;;;;;23.25;20.77;;;;;;;15.34;100.00;97714.31;3617364;39;20063;-67
2023/10/20 05:38:31;;;;;;;24.33;21.95;;;;;;;15.19;100.00;97689.25;3614830;39;20050;-67
2023/10/20 05:40:59;;;;;;;24.77;22.20;;;;;;;15.34;100.00;97719.72;3614862;39;20293;-67
2023/10/20 05:43:26;;;;;;;23.63;21.17;;;;;;;15.35;100.00;97718.69;3616869;39;20150;-67
2023/10/20 05:45:52;;;;;;;24.63;22.05;;;;;;;15.38;100.00;97702.06;3617412;39;20302;-67
2023/10/20 05:48:18;;;;;;;23.48;21.00;;;;;;;15.28;100.00;97688.03;3621131;39;20127;-67
2023/10/20 05:50:44;;;;;;;24.83;22.20;;;;;;;15.38;100.00;97704.75;3619218;39;20058;-67
2023/10/20 05:53:10;;;;;;;25.73;23.02;;;;;;;15.40;100.00;97696.44;3614675;39;20077;-67
2023/10/20 05:55:36;;;;;;;26.42;23.73;;;;;;;15.17;100.00;97657.00;3616894;39;20042;-67
2023/10/20 05:58:02;;;;;;;26.83;24.00;;;;;;;15.39;100.00;97695.59;3614733;39;20103;-66
2023/10/20 06:00:28;;;;;;;25.67;23.13;;;;;;;15.38;100.00;97680.41;3603661;39;20344;-66
2023/10/20 06:02:54;;;;;;;25.65;23.25;;;;;;;15.39;100.00;97684.78;3619029;39;20087;-66
2023/10/20 06:05:21;;;;;;;26.38;23.88;;;;;;;15.29;100.00;97665.38;3620859;39;20049;-65
2023/10/20 06:07:48;;;;;;;25.77;23.05;;;;;;;15.37;100.00;97670.59;3618908;39;20051;-65
2023/10/20 06:10:21;;;;;;;26.33;23.65;;;;;;;15.35;100.00;97678.09;3618782;39;20051;-65
2023/10/20 06:12:51;;;;;;;26.63;24.02;;;;;;;15.34;100.00;97665.59;3606564;39;20046;-65
2023/10/20 06:15:19;;;;;;;25.67;23.08;;;;;;;15.18;100.00;97647.84;3616732;39;20049;-65
2023/10/20 06:17:45;;;;;;;24.67;22.17;;;;;;;15.30;100.00;97680.56;3608621;39;20070;-65
2023/10/20 06:20:13;;;;;;;25.35;22.75;;;;;;;15.24;100.00;97681.38;3617125;39;20058;-65
2023/10/20 06:22:42;;;;;;;24.98;22.48;;;;;;;15.25;100.00;97683.88;3614269;39;20062;-65
2023/10/20 06:25:14;;;;;;;25.00;22.30;;;;;;;15.33;100.00;97674.75;3614279;39;20054;-65
2023/10/20 06:27:45;;;;;;;24.33;21.73;;;;;;;15.21;100.00;97649.31;3616126;39;20055;-65
2023/10/20 06:30:22;;;;;;;22.70;20.30;;;;;;;15.29;100.00;97658.09;3614207;39;20070;-65
2023/10/20 06:32:56;;;;;;;21.95;19.35;;;;;;;15.32;100.00;97667.69;3616006;39;20035;-65
2023/10/20 06:35:32;;;;;;;21.98;19.77;;;;;;;15.30;100.00;97672.44;3614165;39;20063;-65
2023/10/20 06:40:33;;;;;;;22.27;19.98;;;;;;;15.31;100.00;97683.06;3605310;39;20090;-67
2023/10/20 06:42:58;;;;;;;21.70;19.55;;;;;;;15.31;100.00;97676.81;3614501;39;20061;-67
2023/10/20 06:45:24;;;;;;;22.98;19.80;;;;;;;15.30;100.00;97683.28;3613549;39;20055;-66
2023/10/20 06:47:50;;;;;;;22.30;20.02;;;;;;;15.31;100.00;97661.41;3615679;39;20058;-67
2023/10/20 06:50:15;;;;;;;22.75;20.55;;;;;;;15.22;100.00;97651.81;3615903;39;20283;-67
2023/10/20 06:52:41;;;;;;;21.77;19.48;;;;;;;15.30;100.00;97665.16;3614217;39;20062;-68
2023/10/20 06:55:07;;;;;;;22.90;20.40;;;;;;;15.30;100.00;97661.63;3614190;39;20046;-69
2023/10/20 06:57:33;;;;;;;23.45;21.08;;;;;;;15.29;100.00;97663.50;3603823;39;20116;-69
2023/10/20 06:59:59;;;;;;;23.50;21.17;;;;;;;15.28;100.00;97655.56;3617236;39;20050;-69
2023/10/20 07:02:25;;;;;;;24.42;22.08;;;;;;;15.25;100.00;97654.09;3619839;39;20085;-69
2023/10/20 07:04:51;;;;;;;24.85;22.38;;;;;;;15.21;100.00;97657.41;3616312;39;20100;-69
2023/10/20 07:07:18;;;;;;;24.67;22.08;;;;;;;15.14;100.00;97649.28;3614193;39;20062;-69
2023/10/20 07:09:45;;;;;;;23.95;21.42;;;;;;;15.18;100.00;97660.53;3604171;39;20545;-68
2023/10/20 07:12:11;;;;;;;25.10;22.60;;;;;;;15.18;100.00;97649.72;3614590;39;20292;-68
2023/10/20 07:14:40;;;;;;;24.70;22.17;;;;;;;15.17;100.00;97657.00;3616899;39;20050;-68
2023/10/20 07:17:06;;;;;;;24.23;21.83;;;;;;;15.16;100.00;97659.88;3616757;39;20045;-68
2023/10/20 07:19:35;;;;;;;24.35;21.98;;;;;;;15.03;100.00;97631.78;3617523;39;20038;-65
2023/10/20 07:22:04;;;;;;;23.63;21.27;;;;;;;15.16;100.00;97657.19;3617804;39;20270;-65
2023/10/20 07:24:30;;;;;;;22.67;20.58;;;;;;;15.17;100.00;97648.06;3617706;39;20438;-65
2023/10/20 07:26:56;;;;;;;23.10;20.90;;;;;;;15.15;100.00;97650.13;3616926;39;20374;-65
2023/10/20 07:29:22;;;;;;;22.70;20.40;;;;;;;15.18;100.00;97649.72;3616807;39;20123;-65
2023/10/20 07:31:48;;;;;;;22.00;19.95;;;;;;;15.18;100.00;97633.47;3614244;39;20131;-65
2023/10/20 07:34:15;;;;;;;20.23;18.33;;;;;;;15.20;100.00;97648.47;3616311;39;20341;-65
2023/10/20 07:36:42;;;;;;;20.35;18.38;;;;;;;15.19;100.00;97645.97;3616777;39;20066;-63
2023/10/20 07:39:16;;;;;;;20.77;18.90;;;;;;;15.19;100.00;97645.97;3613908;39;20047;-63
2023/10/20 07:41:43;;;;;;;35.97;32.40;;;;;;;15.19;100.00;97644.13;3613781;39;20516;-65
2023/10/20 07:44:18;;;;;;;27.10;24.50;;;;;;;15.20;100.00;97636.81;3615245;39;20410;-65
2023/10/20 07:46:43;;;;;;;21.70;19.50;;;;;;;15.17;100.00;97631.81;3615263;39;20071;-66
2023/10/20 07:49:12;;;;;;;20.90;18.83;;;;;;;15.21;100.00;97633.06;3615416;39;20066;-66
2023/10/20 07:51:41;;;;;;;21.88;19.73;;;;;;;15.21;100.00;97622.25;3615424;39;20135;-65
2023/10/20 07:54:08;;;;;;;19.48;17.58;;;;;;;15.17;100.00;97615.59;3615895;39;20043;-66
2023/10/20 07:56:35;;;;;;;18.23;16.48;;;;;;;15.21;100.00;97627.66;3615967;39;20310;-65
2023/10/20 07:59:01;;;;;;;17.73;16.13;;;;;;;15.19;100.00;97605.38;3616220;39;20045;-65
2023/10/20 08:01:26;;;;;;;48.60;43.35;;;;;;;15.10;100.00;97583.09;3616773;39;20082;-65
2023/10/20 08:03:53;;;;;;;41.63;37.20;;;;;;;15.21;100.00;97595.19;3618296;39;20096;-66
2023/10/20 08:06:20;;;;;;;21.83;19.67;;;;;;;15.18;100.00;97592.88;3615288;39;20063;-65
2023/10/20 08:08:45;;;;;;;17.27;15.63;;;;;;;15.23;100.00;97603.94;3617805;39;20062;-66
2023/10/20 08:11:11;;;;;;;16.05;14.45;;;;;;;15.23;100.00;97598.53;3616987;39;20050;-65
2023/10/20 08:13:37;;;;;;;15.27;13.73;;;;;;;15.26;100.00;97603.53;3615035;39;20398;-66
2023/10/20 08:16:06;;;;;;;14.23;12.82;;;;;;;15.26;100.00;97608.97;3615313;39;20051;-65
2023/10/20 08:18:33;;;;;;;14.02;12.73;;;;;;;15.22;100.00;97604.97;3615113;39;20055;-64
2023/10/20 08:21:08;;;;;;;13.57;12.18;;;;;;;15.25;100.00;97612.69;3615995;39;20046;-65
2023/10/20 08:23:38;;;;;;;12.00;10.90;;;;;;;15.24;100.00;97614.56;3616326;39;20312;-65
2023/10/20 08:26:05;;;;;;;11.82;10.73;;;;;;;15.07;100.00;97573.50;3621316;39;20046;-65
2023/10/20 08:28:30;;;;;;;11.38;9.90;;;;;;;15.21;100.00;97606.00;3616715;39;20058;-64
2023/10/20 08:31:07;;;;;;;11.40;10.40;;;;;;;15.21;100.00;97611.44;3615267;39;20108;-65
2023/10/20 08:33:33;;;;;;;10.68;9.73;;;;;;;15.21;100.00;97612.25;3617081;39;20055;-65
2023/10/20 08:36:11;;;;;;;10.18;9.25;;;;;;;15.20;100.00;97618.72;3614940;39;20055;-65
2023/10/20 08:38:42;;;;;;;9.82;8.82;;;;;;;15.17;100.00;97602.88;3609112;39;20083;-65
2023/10/20 08:41:13;;;;;;;10.07;9.05;;;;;;;15.20;100.00;97615.19;3618982;39;20062;-64
2023/10/20 08:43:44;;;;;;;9.63;8.73;;;;;;;15.16;100.00;97597.66;3615601;39;20066;-64
2023/10/20 08:46:16;;;;;;;9.82;8.93;;;;;;;15.18;100.00;97596.44;3617463;39;20055;-65
2023/10/20 08:48:47;;;;;;;9.38;8.48;;;;;;;15.18;100.00;97607.25;3615978;39;20063;-66
2023/10/20 08:51:17;;;;;;;9.30;8.43;;;;;;;15.18;100.00;97609.13;3616317;39;20112;-65
2023/10/20 08:53:43;;;;;;;9.13;8.23;;;;;;;15.14;100.00;97605.16;3616251;39;20055;-65
2023/10/20 08:56:11;;;;;;;9.25;7.82;;;;;;;15.13;100.00;97601.63;3617441;39;20055;-65
2023/10/20 08:58:38;;;;;;;8.77;7.97;;;;;;;15.12;100.00;97596.41;3614183;39;20066;-65
2023/10/20 09:01:05;;;;;;;8.15;7.45;;;;;;;15.08;100.00;97587.88;3615155;39;20059;-65
2023/10/20 09:03:59;;;;;;;7.60;6.88;;;;;;;15.01;100.00;97581.59;3615536;39;20042;-64
2023/10/20 09:06:26;;;;;;;7.05;6.38;;;;;;;15.10;100.00;97596.63;3614796;39;20047;-64
2023/10/20 09:08:52;;;;;;;6.38;5.70;;;;;;;14.88;100.00;97566.16;3619309;39;20134;-64
2023/10/20 09:11:19;;;;;;;6.30;5.70;;;;;;;15.06;100.00;97601.63;3616439;39;20043;-64
2023/10/20 09:13:47;;;;;;;6.90;5.47;;;;;;;15.02;100.00;97594.91;3618861;39;20401;-64
2023/10/20 09:16:14;;;;;;;5.68;5.00;;;;;;;15.03;100.00;97599.31;3615199;39;20055;-64
2023/10/20 09:18:51;;;;;;;5.57;5.10;;;;;;;15.03;100.00;97604.72;3615085;39;20285;-64
2023/10/20 09:21:26;;;;;;;4.65;4.25;;;;;;;15.03;100.00;97591.19;3614875;39;20051;-64
2023/10/20 09:24:07;;;;;;;4.57;4.18;;;;;;;15.00;100.00;97588.91;3617734;39;20357;-64
2023/10/20 09:26:36;;;;;;;4.50;4.10;;;;;;;14.99;100.00;97570.97;3614757;39;20413;-64
2023/10/20 09:29:07;;;;;;;4.90;4.50;;;;;;;14.97;100.00;97575.78;3616053;39;20050;-65
2023/10/20 09:31:35;;;;;;;5.68;5.15;;;;;;;14.95;100.00;97585.94;3615199;39;20082;-65
2023/10/20 09:34:04;;;;;;;6.70;4.50;;;;;;;14.93;100.00;97582.59;3617507;39;20104;-65
2023/10/20 09:36:32;;;;;;;4.57;4.10;;;;;;;14.93;100.00;97595.28;3616459;39;20050;-65
2023/10/20 09:39:00;;;;;;;5.00;4.53;;;;;;;14.66;100.00;97553.81;3614923;39;20300;-65
2023/10/20 09:41:28;;;;;;;4.95;4.45;;;;;;;14.90;100.00;97591.13;3615887;39;20116;-65
2023/10/20 09:44:06;;;;;;;4.32;3.92;;;;;;;14.89;100.00;97592.16;3615094;39;20322;-66
2023/10/20 09:46:43;;;;;;;4.10;3.80;;;;;;;14.84;100.00;97586.50;3615071;39;20387;-65
2023/10/20 09:49:19;;;;;;;3.50;3.20;;;;;;;14.84;100.00;97583.81;3614765;39;20224;-65
2023/10/20 09:51:48;;;;;;;3.85;3.50;;;;;;;14.79;100.00;97575.50;3617496;39;20309;-65
2023/10/20 09:54:27;;;;;;;3.85;3.55;;;;;;;14.83;100.00;97579.44;3615432;39;20054;-65
2023/10/20 09:56:54;;;;;;;3.63;3.33;;;;;;;14.83;100.00;97582.16;3616054;39;20119;-64
2023/10/20 09:59:27;;;;;;;3.17;2.88;;;;;;;14.81;100.00;97582.38;3614530;39;20054;-64
2023/10/20 10:01:58;;;;;;;3.40;3.10;;;;;;;14.80;100.00;97577.16;3616589;39;20054;-65
2023/10/20 10:04:36;;;;;;;3.42;2.95;;;;;;;14.68;100.00;97562.53;3617679;39;20047;-64
2023/10/20 10:07:04;;;;;;;3.50;3.20;;;;;;;14.81;100.00;97578.81;3611517;39;20255;-65
2023/10/20 10:09:49;;;;;;;3.00;2.80;;;;;;;14.69;100.00;97558.81;3615844;39;20059;-66
2023/10/20 10:12:19;;;;;;;3.10;2.80;;;;;;;14.83;100.00;97576.75;3615588;39;20078;-66
2023/10/20 10:15:14;;;;;;;3.08;2.88;;;;;;;14.84;100.00;97573.00;3615218;39;20151;-64
2023/10/20 10:17:46;;;;;;;2.60;2.40;;;;;;;14.83;100.00;97572.16;3614366;39;20078;-63
2023/10/20 10:20:23;;;;;;;2.50;2.30;;;;;;;14.83;100.00;97572.16;3615321;39;20051;-63
2023/10/20 10:23:09;;;;;;;2.55;2.20;;;;;;;14.83;100.00;97565.94;3614438;39;20069;-64
2023/10/20 10:25:37;;;;;;;2.30;2.10;;;;;;;14.63;100.00;97533.41;3615404;39;20641;-68
2023/10/20 10:28:14;;;;;;;3.55;2.15;;;;;;;14.83;100.00;97571.34;3617289;39;20050;-64
2023/10/20 10:30:42;;;;;;;2.60;2.40;;;;;;;14.84;100.00;97562.19;3613993;39;20140;-65
2023/10/20 10:33:10;;;;;;;2.47;2.38;;;;;;;14.86;100.00;97557.41;3617947;39;20046;-64
2023/10/20 10:35:38;;;;;;;3.30;3.00;;;;;;;14.89;100.00;97554.31;3615103;39;20058;-64
2023/10/20 10:38:17;;;;;;;4.45;4.05;;;;;;;14.92;100.00;97553.91;3614398;39;20058;-64
2023/10/20 10:40:47;;;;;;;3.40;3.20;;;;;;;14.96;100.00;97555.16;3615297;39;20404;-64
2023/10/20 10:43:22;;;;;;;3.08;2.67;;;;;;;14.96;100.00;97544.34;3614208;39;20485;-64
2023/10/20 10:45:52;;;;;;;3.20;2.90;;;;;;;14.99;100.00;97543.94;3614312;39;20070;-64
2023/10/20 10:48:18;;;;;;;2.95;2.75;;;;;;;14.93;100.00;97531.22;3615032;39;20095;-64
2023/10/20 10:50:46;;;;;;;3.13;2.83;;;;;;;14.94;100.00;97523.94;3614186;39;20081;-65
2023/10/20 10:53:14;;;;;;;2.45;2.20;;;;;;;15.00;100.00;97528.53;3606869;39;20551;-65
2023/10/20 10:55:41;;;;;;;2.08;1.98;;;;;;;14.99;100.00;97533.09;3616083;39;20057;-64
2023/10/20 10:58:10;;;;;;;2.30;2.10;;;;;;;14.98;100.00;97520.63;3616994;39;20046;-64
2023/10/20 11:00:39;;;;;;;2.10;2.00;;;;;;;14.96;100.00;97511.88;3615936;39;20324;-64
2023/10/20 11:03:07;;;;;;;2.53;2.22;;;;;;;14.98;100.00;97499.00;3613757;39;20062;-63
2023/10/20 11:05:33;;;;;;;2.78;2.53;;;;;;;14.31;100.00;97389.81;3614569;39;20116;-63
2023/10/20 11:08:02;;;;;;;3.20;3.00;;;;;;;15.02;100.00;97494.84;3614203;39;20059;-64
2023/10/20 11:10:33;;;;;;;5.38;4.93;;;;;;;15.06;100.00;97496.09;3614877;39;20051;-64
2023/10/20 11:12:59;;;;;;;5.57;4.80;;;;;;;15.05;100.00;97497.13;3615433;39;20112;-64
2023/10/20 11:15:31;;;;;;;3.17;2.97;;;;;;;14.98;100.00;97482.75;3616047;39;20043;-64
2023/10/20 11:18:00;;;;;;;4.32;4.00;;;;;;;15.13;100.00;97489.84;3616599;39;20057;-64
2023/10/20 11:20:34;;;;;;;3.50;3.20;;;;;;;15.13;100.00;97470.91;3617018;39;20043;-64
2023/10/20 11:23:00;;;;;;;2.92;2.72;;;;;;;15.17;100.00;97480.31;3617604;39;20054;-65
2023/10/20 11:25:26;;;;;;;2.50;2.40;;;;;;;15.18;100.00;97471.97;3617507;39;20351;-65
2023/10/20 11:27:56;;;;;;;3.03;2.83;;;;;;;15.01;100.00;97439.06;3620418;39;20046;-65
2023/10/20 11:30:23;;;;;;;3.63;2.88;;;;;;;15.22;100.00;97466.97;3617107;39;20054;-66
2023/10/20 11:32:49;;;;;;;3.15;2.95;;;;;;;15.23;100.00;97474.06;3619240;39;20340;-66
2023/10/20 11:35:14;;;;;;;2.85;2.75;;;;;;;15.25;100.00;97466.56;3617900;39;20057;-64
2023/10/20 11:37:40;;;;;;;3.72;3.40;;;;;;;15.26;100.00;97466.38;3621518;39;20066;-65
2023/10/20 11:40:07;;;;;;;3.70;3.40;;;;;;;15.28;100.00;97464.25;3616978;39;20053;-65
2023/10/20 11:42:33;;;;;;;3.58;3.38;;;;;;;15.32;100.00;97460.13;3621895;39;20046;-66
2023/10/20 11:45:00;;;;;;;4.10;3.80;;;;;;;15.33;100.00;97459.06;3618772;39;20396;-65
2023/10/20 11:47:26;;;;;;;4.00;3.70;;;;;;;15.38;100.00;97453.06;3611635;39;20053;-66
2023/10/20 11:49:54;;;;;;;3.58;3.38;;;;;;;15.38;100.00;97450.34;3617948;39;20047;-67
2023/10/20 11:52:22;;;;;;;3.78;3.47;;;;;;;15.18;100.00;97401.63;3616819;39;20050;-66